Time;durP1;ratioP1;P1;durP2;ratioP2;P2;SDS_P1;SDS_P2;PMS_P1;PMS_P2;Temp;Humidity;BMP_temperature;BMP_pressure;BME280_temperature;BME280_humidity;BME280_pressure;Samples;Min_cycle;Max_cycle;Signal;HPM_P1;HPM_P2
2022/11/24 00:00:30;;;;;;;15.73;10.32;;;8.30;99.90;;;;;;5115634;27;20034;-87
2022/11/24 00:02:55;;;;;;;19.05;9.52;;;8.20;99.90;;;;;;5134271;27;20072;-86
2022/11/24 00:05:22;;;;;;;21.27;11.30;;;8.30;99.90;;;;;;5134537;27;20113;-87
2022/11/24 00:07:48;;;;;;;25.05;11.55;;;8.30;99.90;;;;;;5135413;27;20039;-85
2022/11/24 00:10:13;;;;;;;20.20;11.30;;;8.20;99.90;;;;;;5133736;27;20046;-86
2022/11/24 00:12:39;;;;;;;23.42;11.00;;;8.20;99.90;;;;;;5133293;27;20035;-86
2022/11/24 00:15:05;;;;;;;20.95;11.10;;;8.10;99.90;;;;;;5133957;27;20050;-86
2022/11/24 00:17:31;;;;;;;26.42;11.57;;;8.10;99.90;;;;;;5115236;28;20070;-86
2022/11/24 00:19:56;;;;;;;19.55;10.90;;;8.10;99.90;;;;;;5133898;28;20039;-86
2022/11/24 00:22:22;;;;;;;21.60;11.43;;;8.10;99.90;;;;;;5134295;28;20493;-86
2022/11/24 00:24:48;;;;;;;22.90;10.20;;;8.00;99.90;;;;;;5116280;28;20062;-86
2022/11/24 00:27:13;;;;;;;22.75;11.07;;;8.00;99.90;;;;;;5134103;28;20092;-86
2022/11/24 00:29:39;;;;;;;20.83;11.50;;;8.00;99.90;;;;;;5115119;28;20077;-86
2022/11/24 00:32:05;;;;;;;23.60;10.57;;;8.00;99.90;;;;;;5098492;28;20043;-86
2022/11/24 00:34:31;;;;;;;23.95;10.70;;;7.90;99.90;;;;;;5133797;28;20082;-87
2022/11/24 00:36:57;;;;;;;23.52;10.52;;;7.90;99.90;;;;;;5133075;28;20080;-85
2022/11/24 00:39:22;;;;;;;28.48;10.82;;;7.90;99.90;;;;;;5115140;28;20463;-86
2022/11/24 00:41:49;;;;;;;23.30;11.18;;;7.80;99.90;;;;;;5134819;28;20039;-86
2022/11/24 00:44:15;;;;;;;26.88;10.98;;;7.80;99.90;;;;;;5115844;28;20478;-87
2022/11/24 00:46:40;;;;;;;24.33;10.35;;;7.80;99.90;;;;;;5111802;28;20054;-87
2022/11/24 00:49:06;;;;;;;25.92;10.18;;;7.80;99.90;;;;;;5111377;28;20050;-86
2022/11/24 00:51:32;;;;;;;20.45;9.52;;;7.80;99.90;;;;;;5112700;28;20429;-87
2022/11/24 00:53:59;;;;;;;22.48;9.32;;;7.80;99.90;;;;;;5116513;28;20126;-86
2022/11/24 00:56:26;;;;;;;22.33;9.38;;;7.80;99.90;;;;;;5115671;28;20075;-86
2022/11/24 00:58:52;;;;;;;21.00;9.57;;;7.80;99.90;;;;;;5117550;28;20039;-87
2022/11/24 01:01:20;;;;;;;27.17;9.95;;;7.80;99.90;;;;;;5115946;28;20120;-87
2022/11/24 01:03:46;;;;;;;22.48;9.50;;;7.80;99.90;;;;;;5115542;28;20028;-86
2022/11/24 01:06:15;;;;;;;25.05;9.57;;;7.80;99.90;;;;;;5115611;28;20108;-87
2022/11/24 01:08:42;;;;;;;26.52;9.52;;;7.80;99.90;;;;;;5115783;28;20078;-86
2022/11/24 01:11:09;;;;;;;23.60;9.90;;;7.80;99.90;;;;;;5117212;28;20383;-87
2022/11/24 01:13:37;;;;;;;23.17;9.80;;;7.80;99.90;;;;;;5117613;28;20058;-87
2022/11/24 01:16:03;;;;;;;22.17;9.63;;;7.70;99.90;;;;;;5116208;28;20070;-86
2022/11/24 01:18:28;;;;;;;20.58;8.05;;;7.80;99.90;;;;;;5115088;28;20508;-86
2022/11/24 01:20:54;;;;;;;19.58;8.85;;;7.80;99.90;;;;;;5115058;28;20040;-86
2022/11/24 01:23:19;;;;;;;27.52;8.55;;;7.80;99.90;;;;;;5116696;28;20408;-87
2022/11/24 01:25:45;;;;;;;22.23;8.85;;;7.70;99.90;;;;;;5116247;28;20119;-86
2022/11/24 01:28:11;;;;;;;26.10;8.55;;;7.70;99.90;;;;;;5115437;28;20044;-86
2022/11/24 01:30:36;;;;;;;23.52;8.45;;;7.70;99.90;;;;;;5116461;27;20557;-87
2022/11/24 01:33:02;;;;;;;24.30;8.40;;;7.70;99.90;;;;;;5116756;28;20122;-84
2022/11/24 01:35:28;;;;;;;22.67;8.18;;;7.60;99.90;;;;;;5114786;28;20040;-86
2022/11/24 01:37:53;;;;;;;18.45;7.03;;;7.90;99.90;;;;;;5116302;28;20036;-87
2022/11/24 01:40:19;;;;;;;18.05;7.18;;;7.60;99.90;;;;;;5115620;28;20036;-86
2022/11/24 01:42:50;;;;;;;25.10;8.20;;;7.70;99.90;;;;;;5115992;27;20044;-87
2022/11/24 01:45:22;;;;;;;23.90;7.63;;;7.60;99.90;;;;;;5122218;27;20058;-87
2022/11/24 01:47:48;;;;;;;19.15;7.70;;;7.60;99.90;;;;;;5118741;27;20069;-86
2022/11/24 01:50:15;;;;;;;23.38;7.53;;;7.60;99.90;;;;;;5117726;27;20055;-86
2022/11/24 01:52:50;;;;;;;18.85;7.43;;;7.50;99.90;;;;;;5099347;27;20039;-86
2022/11/24 01:55:21;;;;;;;24.00;8.43;;;7.70;99.90;;;;;;5135537;27;20050;-86
2022/11/24 01:57:53;;;;;;;26.60;7.90;;;7.60;99.90;;;;;;5135481;27;20111;-87
2022/11/24 02:00:19;;;;;;;23.05;7.57;;;7.50;99.90;;;;;;5135010;27;20118;-86
2022/11/24 02:02:44;;;;;;;26.80;7.03;;;7.60;99.90;;;;;;5117957;27;20119;-87
2022/11/24 02:05:24;;;;;;;19.83;6.60;;;7.60;99.90;;;;;;5134928;27;20039;-86
2022/11/24 02:07:52;;;;;;;22.40;6.97;;;7.60;99.90;;;;;;5117791;27;20068;-86
2022/11/24 02:10:18;;;;;;;21.67;6.50;;;7.60;99.90;;;;;;5120903;27;20483;-86
2022/11/24 02:12:47;;;;;;;21.42;6.78;;;7.60;99.90;;;;;;5135936;27;20039;-86
2022/11/24 02:15:15;;;;;;;24.40;6.78;;;7.70;99.90;;;;;;5136359;27;20114;-86
2022/11/24 02:17:41;;;;;;;26.75;7.90;;;7.70;99.90;;;;;;5136024;27;20039;-87
2022/11/24 02:20:09;;;;;;;19.45;6.93;;;7.60;99.90;;;;;;5117294;27;20142;-86
2022/11/24 02:22:37;;;;;;;20.38;6.32;;;7.60;99.90;;;;;;5135742;27;20039;-87
2022/11/24 02:25:29;;;;;;;22.90;6.30;;;7.70;99.90;;;;;;5116899;27;20049;-86
2022/11/24 02:27:56;;;;;;;22.85;6.65;;;7.70;99.90;;;;;;5077041;27;20044;-87
2022/11/24 02:30:22;;;;;;;23.65;6.10;;;7.70;99.90;;;;;;5131896;27;20050;-87
2022/11/24 02:32:48;;;;;;;25.17;5.70;;;8.00;99.90;;;;;;5118642;27;20031;-86
2022/11/24 02:35:14;;;;;;;19.88;5.80;;;7.80;99.90;;;;;;5117143;27;20482;-87
2022/11/24 02:37:40;;;;;;;24.60;6.45;;;7.70;99.90;;;;;;5116552;27;20122;-86
2022/11/24 02:40:06;;;;;;;23.45;5.65;;;7.70;99.90;;;;;;5117712;27;20423;-87
2022/11/24 02:42:38;;;;;;;21.27;5.47;;;7.70;99.90;;;;;;5134872;27;20050;-86
2022/11/24 02:45:05;;;;;;;28.63;6.35;;;7.70;99.90;;;;;;5116543;27;20091;-86
2022/11/24 02:47:30;;;;;;;23.17;6.35;;;7.70;99.90;;;;;;5135425;27;20092;-87
2022/11/24 02:49:56;;;;;;;20.85;6.05;;;7.70;99.90;;;;;;5116842;27;20030;-87
2022/11/24 02:52:22;;;;;;;22.73;5.40;;;7.70;99.90;;;;;;5116718;27;20079;-87
2022/11/24 02:54:47;;;;;;;24.02;6.13;;;7.60;99.90;;;;;;5135196;27;20043;-87
2022/11/24 02:57:14;;;;;;;21.30;5.97;;;7.70;99.90;;;;;;5117291;27;20039;-87
2022/11/24 02:59:40;;;;;;;21.27;5.85;;;7.70;99.90;;;;;;5133807;27;20039;-87
2022/11/24 03:02:05;;;;;;;21.48;6.10;;;7.50;99.90;;;;;;5134881;27;20038;-86
2022/11/24 03:04:31;;;;;;;25.33;5.88;;;7.50;99.90;;;;;;5116449;27;20434;-87
2022/11/24 03:06:57;;;;;;;23.38;5.28;;;7.90;99.90;;;;;;5117308;27;20324;-87
2022/11/24 03:09:22;;;;;;;25.42;5.47;;;7.50;99.90;;;;;;5116626;27;20047;-87
2022/11/24 03:11:48;;;;;;;21.88;4.97;;;7.50;99.90;;;;;;5122924;27;20511;-86
2022/11/24 03:14:14;;;;;;;21.02;5.65;;;8.00;99.90;;;;;;5115503;28;20046;-86
2022/11/24 03:16:39;;;;;;;21.10;5.60;;;7.60;99.90;;;;;;5094352;28;20040;-87
2022/11/24 03:19:05;;;;;;;19.65;5.82;;;7.60;99.90;;;;;;5115228;28;20035;-87
2022/11/24 03:21:31;;;;;;;23.52;5.47;;;7.60;99.90;;;;;;5096691;28;20071;-86
2022/11/24 03:23:56;;;;;;;20.00;5.18;;;7.50;99.90;;;;;;5109196;27;20070;-86
2022/11/24 03:26:24;;;;;;;23.92;5.80;;;7.70;99.90;;;;;;5134150;27;20039;-88
2022/11/24 03:28:53;;;;;;;25.42;4.95;;;7.60;99.90;;;;;;5134509;27;20043;-86
2022/11/24 03:31:19;;;;;;;22.65;5.40;;;7.60;99.90;;;;;;5116189;27;20043;-87
2022/11/24 03:33:44;;;;;;;19.55;5.88;;;7.60;99.90;;;;;;5117339;27;20058;-86
2022/11/24 03:36:10;;;;;;;23.88;5.75;;;7.60;99.90;;;;;;5116353;27;20110;-86
2022/11/24 03:38:36;;;;;;;22.98;5.63;;;7.60;99.90;;;;;;5117313;27;20089;-86
2022/11/24 03:41:02;;;;;;;22.23;5.70;;;7.60;99.90;;;;;;5135626;27;20092;-86
2022/11/24 03:43:28;;;;;;;21.15;5.43;;;7.60;99.90;;;;;;5134499;27;20341;-87
2022/11/24 03:45:53;;;;;;;25.90;5.15;;;8.10;99.90;;;;;;5115373;27;20047;-87
2022/11/24 03:48:20;;;;;;;18.52;5.30;;;7.70;99.90;;;;;;5134917;27;20035;-87
2022/11/24 03:51:00;;;;;;;18.88;5.50;;;7.60;99.90;;;;;;5099256;27;20043;-87
2022/11/24 03:53:28;;;;;;;22.08;5.68;;;7.70;99.90;;;;;;5079442;28;20200;-87
2022/11/24 03:55:53;;;;;;;21.02;4.97;;;7.70;99.90;;;;;;5116198;27;20450;-86
2022/11/24 03:58:19;;;;;;;20.98;5.20;;;7.60;99.90;;;;;;5134948;27;20031;-87
2022/11/24 04:00:51;;;;;;;26.73;5.45;;;7.60;99.90;;;;;;5115657;27;20035;-88
2022/11/24 04:03:18;;;;;;;20.80;5.50;;;7.60;99.90;;;;;;5134486;27;20050;-87
2022/11/24 04:05:44;;;;;;;25.50;4.95;;;7.60;99.90;;;;;;5116282;27;20489;-87
2022/11/24 04:08:10;;;;;;;20.58;4.75;;;7.70;99.90;;;;;;5100795;27;20110;-87
2022/11/24 04:10:37;;;;;;;19.08;5.30;;;7.60;99.90;;;;;;5133924;27;20118;-87
2022/11/24 04:13:09;;;;;;;29.00;5.80;;;7.60;99.90;;;;;;5115407;27;20395;-87
2022/11/24 04:15:38;;;;;;;23.73;4.88;;;7.60;99.90;;;;;;5134078;27;20091;-88
2022/11/24 04:18:03;;;;;;;15.52;4.32;;;7.60;99.90;;;;;;5133778;27;20092;-87
2022/11/24 04:20:29;;;;;;;21.20;4.85;;;7.60;99.90;;;;;;5115774;28;20036;-87
2022/11/24 04:22:55;;;;;;;26.13;4.85;;;7.60;99.90;;;;;;5115584;28;20066;-88
2022/11/24 04:25:20;;;;;;;19.83;5.10;;;8.00;99.90;;;;;;5115083;28;20035;-87
2022/11/24 04:27:50;;;;;;;18.85;4.28;;;7.70;99.90;;;;;;5135051;27;20511;-87
2022/11/24 04:30:16;;;;;;;19.42;4.07;;;7.60;99.90;;;;;;5119576;27;20390;-86
2022/11/24 04:32:42;;;;;;;21.88;4.57;;;7.70;99.90;;;;;;5120038;27;20039;-87
2022/11/24 04:35:08;;;;;;;20.05;4.55;;;8.10;99.90;;;;;;5137621;27;20123;-86
2022/11/24 04:37:34;;;;;;;18.33;4.35;;;7.60;99.90;;;;;;5119457;27;20050;-87
2022/11/24 04:39:59;;;;;;;17.50;5.13;;;7.60;99.90;;;;;;5137505;27;20039;-87
2022/11/24 04:42:25;;;;;;;20.75;4.28;;;7.60;99.90;;;;;;5138008;27;20043;-86
2022/11/24 04:44:51;;;;;;;17.92;4.57;;;7.60;99.90;;;;;;5136986;27;20538;-87
2022/11/24 04:47:22;;;;;;;17.80;4.32;;;7.60;99.90;;;;;;5139062;27;20035;-87
2022/11/24 04:49:50;;;;;;;21.17;4.47;;;7.90;99.90;;;;;;5138318;27;20050;-87
2022/11/24 04:52:18;;;;;;;19.00;4.22;;;8.70;99.90;;;;;;5119265;27;20051;-88
2022/11/24 04:54:44;;;;;;;17.88;4.07;;;7.60;99.90;;;;;;5137641;27;20471;-87
2022/11/24 04:57:22;;;;;;;20.60;4.18;;;7.60;99.90;;;;;;5116899;27;20063;-87
2022/11/24 04:59:49;;;;;;;15.23;4.28;;;7.60;99.90;;;;;;5117569;28;20040;-88
2022/11/24 05:02:14;;;;;;;18.33;4.57;;;8.90;99.90;;;;;;5118984;27;20435;-87
2022/11/24 05:04:40;;;;;;;15.85;4.00;;;7.60;99.90;;;;;;5137642;27;20126;-87
2022/11/24 05:07:06;;;;;;;18.92;4.30;;;7.50;99.90;;;;;;5119139;27;20086;-87
2022/11/24 05:09:32;;;;;;;16.77;4.32;;;7.80;99.90;;;;;;5137335;27;20035;-88
2022/11/24 05:11:58;;;;;;;24.27;4.75;;;7.50;99.90;;;;;;5118739;27;20042;-87
2022/11/24 05:14:23;;;;;;;19.63;4.47;;;7.50;99.90;;;;;;5119186;27;20050;-88
2022/11/24 05:16:50;;;;;;;13.32;3.65;;;7.50;99.90;;;;;;5138897;27;20042;-87
2022/11/24 05:19:16;;;;;;;15.15;4.35;;;7.50;99.90;;;;;;5138778;27;20035;-86
2022/11/24 05:21:42;;;;;;;21.40;4.60;;;7.50;99.90;;;;;;5137272;27;20035;-85
2022/11/24 05:24:09;;;;;;;19.02;4.75;;;7.50;99.90;;;;;;5127513;27;20043;-86
2022/11/24 05:26:35;;;;;;;19.52;4.03;;;7.50;99.90;;;;;;5081177;28;20142;-86
2022/11/24 05:29:01;;;;;;;19.08;4.20;;;7.50;99.90;;;;;;5116282;28;20127;-86
2022/11/24 05:31:26;;;;;;;19.23;3.90;;;7.50;99.90;;;;;;5116515;28;20051;-86
2022/11/24 05:33:52;;;;;;;16.23;3.92;;;7.40;99.90;;;;;;5117608;28;20050;-86
2022/11/24 05:39:01;;;;;;;13.38;4.10;;;7.40;99.90;;;;;;5128788;27;20051;-84
2022/11/24 05:41:27;;;;;;;15.60;4.43;;;7.50;99.90;;;;;;5117861;27;20372;-87
2022/11/24 05:43:53;;;;;;;17.00;4.15;;;7.40;99.90;;;;;;5137429;27;20044;-85
2022/11/24 05:46:18;;;;;;;19.52;4.53;;;7.40;99.90;;;;;;5135217;27;20055;-85
2022/11/24 05:48:44;;;;;;;18.55;3.92;;;7.80;99.90;;;;;;5103549;27;20043;-85
2022/11/24 05:51:09;;;;;;;20.85;4.88;;;7.40;99.90;;;;;;5117325;27;20070;-85
2022/11/24 05:53:35;;;;;;;20.55;4.10;;;7.90;99.90;;;;;;5135883;27;20459;-86
2022/11/24 05:56:04;;;;;;;21.00;4.45;;;7.40;99.90;;;;;;5100337;27;20068;-85
2022/11/24 05:58:30;;;;;;;22.52;5.10;;;7.40;99.90;;;;;;5136085;27;21158;-85
2022/11/24 06:00:56;;;;;;;19.08;4.18;;;7.40;99.90;;;;;;5135949;27;20038;-86
2022/11/24 06:03:22;;;;;;;21.25;3.83;;;8.80;99.90;;;;;;5135972;27;20043;-85
2022/11/24 06:05:48;;;;;;;20.00;4.20;;;7.40;99.90;;;;;;5134181;27;20050;-85
2022/11/24 06:08:14;;;;;;;18.70;3.83;;;7.70;99.90;;;;;;5116238;27;20047;-86
2022/11/24 06:10:40;;;;;;;18.42;4.65;;;7.50;99.90;;;;;;5135621;27;20078;-85
2022/11/24 06:13:06;;;;;;;16.23;4.47;;;7.40;99.90;;;;;;5135597;27;20082;-85
2022/11/24 06:15:34;;;;;;;18.27;4.43;;;7.40;99.90;;;;;;5135456;27;20522;-85
2022/11/24 06:17:59;;;;;;;13.98;4.05;;;8.70;99.90;;;;;;5119116;27;20395;-85
2022/11/24 06:20:25;;;;;;;18.63;4.78;;;7.40;99.90;;;;;;5115266;27;20044;-85
2022/11/24 06:22:51;;;;;;;16.42;3.67;;;7.40;99.90;;;;;;5135451;27;20035;-85
2022/11/24 06:25:17;;;;;;;18.83;4.20;;;7.30;99.90;;;;;;5135050;27;20047;-85
2022/11/24 06:27:43;;;;;;;22.38;4.60;;;7.30;99.90;;;;;;5117142;27;20050;-86
2022/11/24 06:30:09;;;;;;;15.82;3.80;;;7.40;99.90;;;;;;5135300;27;20053;-85
2022/11/24 06:32:35;;;;;;;20.20;4.40;;;7.40;99.90;;;;;;5116541;27;20031;-86
2022/11/24 06:35:01;;;;;;;16.50;4.00;;;7.60;99.90;;;;;;5134752;27;20462;-85
2022/11/24 06:37:26;;;;;;;13.32;3.45;;;7.40;99.90;;;;;;5134907;27;20057;-85
2022/11/24 06:39:52;;;;;;;13.48;4.22;;;7.40;99.90;;;;;;5134906;27;20489;-85
2022/11/24 06:42:21;;;;;;;22.25;4.28;;;8.70;99.90;;;;;;5134449;27;20062;-85
2022/11/24 06:44:47;;;;;;;17.73;4.20;;;7.40;99.90;;;;;;5134763;27;20038;-84
2022/11/24 06:47:13;;;;;;;16.20;3.80;;;7.30;99.90;;;;;;5099404;27;20051;-85
2022/11/24 06:49:39;;;;;;;21.70;4.22;;;7.40;99.90;;;;;;5134137;27;20039;-85
2022/11/24 06:52:05;;;;;;;13.52;3.55;;;7.40;99.90;;;;;;5134872;27;20043;-85
2022/11/24 06:54:30;;;;;;;16.83;3.67;;;8.20;99.90;;;;;;5135993;27;20051;-85
2022/11/24 06:56:57;;;;;;;13.95;3.80;;;7.30;99.90;;;;;;5134581;27;20176;-85
2022/11/24 06:59:23;;;;;;;15.52;4.07;;;8.10;99.90;;;;;;5114514;28;20051;-85
2022/11/24 07:01:48;;;;;;;14.10;4.22;;;7.30;99.90;;;;;;5109394;27;20035;-85
2022/11/24 07:04:14;;;;;;;16.90;3.67;;;7.30;99.90;;;;;;5115301;27;20047;-85
2022/11/24 07:06:40;;;;;;;18.38;4.65;;;7.30;99.90;;;;;;5133608;27;20483;-84
2022/11/24 07:09:08;;;;;;;16.02;4.28;;;7.70;99.90;;;;;;5130348;27;20047;-84
2022/11/24 07:11:34;;;;;;;17.98;3.83;;;7.30;99.90;;;;;;5135645;27;20437;-84
2022/11/24 07:14:00;;;;;;;16.63;4.05;;;7.30;99.90;;;;;;5117125;27;20544;-84
2022/11/24 07:16:26;;;;;;;16.42;4.50;;;7.40;99.90;;;;;;5116304;27;20035;-85
2022/11/24 07:18:53;;;;;;;12.45;4.10;;;7.30;99.90;;;;;;5134310;27;20590;-84
2022/11/24 07:21:20;;;;;;;12.73;3.95;;;7.40;99.90;;;;;;5098908;27;20035;-84
2022/11/24 07:23:53;;;;;;;16.45;3.90;;;7.30;99.90;;;;;;5132980;27;20042;-84
2022/11/24 07:26:20;;;;;;;16.88;4.50;;;8.60;99.90;;;;;;5115579;27;20455;-84
2022/11/24 07:28:46;;;;;;;19.38;4.60;;;6.80;99.90;;;;;;5134480;27;20407;-84
2022/11/24 07:31:14;;;;;;;19.15;4.30;;;7.30;99.90;;;;;;5115102;27;20035;-85
2022/11/24 07:33:40;;;;;;;18.05;4.32;;;7.40;99.90;;;;;;5132487;27;20054;-84
2022/11/24 07:36:07;;;;;;;18.80;4.20;;;7.30;99.90;;;;;;5115164;27;20031;-84
2022/11/24 07:38:33;;;;;;;15.57;4.07;;;7.30;99.90;;;;;;5098694;27;20055;-86
2022/11/24 07:41:03;;;;;;;18.58;4.75;;;7.30;99.90;;;;;;5133132;27;20099;-85
2022/11/24 07:43:33;;;;;;;17.77;4.15;;;7.80;99.90;;;;;;5133535;27;20043;-85
2022/11/24 07:45:59;;;;;;;17.23;4.80;;;7.40;99.90;;;;;;5114694;27;20499;-85
2022/11/24 07:48:25;;;;;;;19.88;4.53;;;7.40;99.90;;;;;;5095898;28;20055;-84
2022/11/24 07:50:50;;;;;;;14.63;4.30;;;7.40;99.90;;;;;;5128578;27;20036;-85
2022/11/24 07:53:16;;;;;;;17.85;4.60;;;8.30;99.90;;;;;;5115030;27;20058;-85
2022/11/24 07:55:42;;;;;;;17.08;4.50;;;7.40;99.90;;;;;;5109350;28;20134;-86
2022/11/24 07:58:08;;;;;;;15.00;4.57;;;9.00;99.90;;;;;;5113053;28;20039;-85
2022/11/24 08:00:33;;;;;;;18.05;4.68;;;7.50;99.90;;;;;;5113000;28;20388;-85
2022/11/24 08:02:59;;;;;;;19.63;5.22;;;7.60;99.90;;;;;;5094332;28;20122;-85
2022/11/24 08:05:25;;;;;;;19.98;4.72;;;7.60;99.90;;;;;;5116858;27;20043;-85
2022/11/24 08:07:50;;;;;;;13.48;4.03;;;7.60;99.90;;;;;;5133576;27;20035;-85
2022/11/24 08:10:16;;;;;;;15.75;4.35;;;7.70;99.90;;;;;;5133224;27;20150;-85
2022/11/24 08:12:42;;;;;;;16.77;4.40;;;7.80;99.90;;;;;;5097809;27;20050;-85
2022/11/24 08:15:08;;;;;;;18.60;4.88;;;8.70;99.90;;;;;;5115516;27;20455;-84
2022/11/24 08:17:35;;;;;;;17.50;4.43;;;7.90;99.90;;;;;;5133271;27;20091;-82
2022/11/24 08:20:00;;;;;;;19.50;5.57;;;7.90;99.90;;;;;;5132269;27;20068;-85
2022/11/24 08:22:26;;;;;;;18.08;4.50;;;8.00;99.90;;;;;;5133059;27;20473;-85
2022/11/24 08:24:52;;;;;;;14.98;4.32;;;8.00;99.90;;;;;;5115139;28;20035;-85
2022/11/24 08:27:18;;;;;;;15.98;4.47;;;8.10;99.90;;;;;;5133224;28;20032;-85
2022/11/24 08:29:44;;;;;;;16.60;4.32;;;8.70;99.90;;;;;;5133280;28;20146;-85
2022/11/24 08:32:11;;;;;;;18.05;4.50;;;8.10;99.90;;;;;;5132984;28;20507;-84
2022/11/24 08:34:37;;;;;;;15.27;4.97;;;9.20;99.90;;;;;;5133228;28;20039;-85
2022/11/24 08:37:04;;;;;;;19.15;4.25;;;8.20;99.90;;;;;;5132944;28;20044;-85
2022/11/24 08:39:30;;;;;;;16.98;4.63;;;8.20;99.90;;;;;;5133890;28;20039;-85
2022/11/24 08:41:58;;;;;;;18.15;5.00;;;8.40;99.90;;;;;;5115740;28;20047;-85
2022/11/24 08:44:27;;;;;;;16.85;4.57;;;8.50;99.90;;;;;;5133505;28;20039;-84
2022/11/24 08:46:53;;;;;;;15.43;4.68;;;8.60;99.90;;;;;;5132599;28;20055;-85
2022/11/24 08:49:20;;;;;;;15.70;4.82;;;9.50;99.90;;;;;;5133014;28;20519;-85
2022/11/24 08:51:47;;;;;;;18.73;4.70;;;9.80;99.90;;;;;;5132737;28;20047;-84
2022/11/24 08:54:14;;;;;;;16.52;4.53;;;9.90;99.90;;;;;;5114909;28;20059;-85
2022/11/24 08:56:41;;;;;;;17.13;5.03;;;10.30;99.90;;;;;;5133347;28;20364;-85
2022/11/24 08:59:07;;;;;;;13.07;4.80;;;;;;;;;;5133425;28;20071;-86
2022/11/24 09:01:33;;;;;;;14.43;4.82;;;;;;;;;;5132787;28;20047;-86
2022/11/24 09:03:59;;;;;;;16.98;4.50;;;;;;;;;;5114900;28;20051;-86
2022/11/24 09:06:26;;;;;;;13.60;4.18;;;;;;;;;;5131825;28;20122;-87
2022/11/24 09:08:55;;;;;;;15.15;4.30;;;;;;;;;;5125171;27;20042;-85
2022/11/24 09:11:22;;;;;;;10.50;4.10;;;;;;;;;;5118090;27;20046;-83
2022/11/24 09:13:48;;;;;;;14.82;4.68;;;;;;;;;;5136829;27;20054;-87
2022/11/24 09:16:16;;;;;;;11.07;4.18;;;;;;;;;;5140193;27;20099;-84
2022/11/24 09:18:42;;;;;;;14.07;4.28;;;;;;;;;;5122848;27;20539;-87
2022/11/24 09:21:09;;;;;;;12.77;4.03;;;;;;;;;;5121896;27;20038;-85
2022/11/24 09:23:37;;;;;;;13.75;3.80;;;;;;;;;;5121912;27;20046;-86
2022/11/24 09:26:04;;;;;;;12.10;4.10;;;;;;;;;;5121943;27;20078;-85
2022/11/24 09:28:30;;;;;;;11.85;3.97;;;;;;;;;;5123414;27;20053;-90
2022/11/24 09:30:59;;;;;;;11.57;3.75;;;;;;;;;;5142337;27;20043;-87
2022/11/24 09:33:25;;;;;;;10.98;3.83;;;;;;;;;;5140213;27;20054;-86
2022/11/24 09:35:51;;;;;;;10.38;3.60;;;;;;;;;;5139796;27;20034;-86
2022/11/24 09:38:17;;;;;;;14.80;3.75;;;;;;;;;;5122240;27;20052;-85
2022/11/24 09:40:43;;;;;;;10.43;3.72;;;;;;;;;;5138899;27;20038;-84
2022/11/24 09:43:18;;;;;;;11.98;3.45;;;;;;;;;;5121231;27;20091;-85
2022/11/24 09:45:55;;;;;;;10.85;3.38;;;;;;;;;;5133098;27;20051;-85
2022/11/24 09:48:30;;;;;;;8.55;3.30;;;;;;;;;;5096998;28;20040;-86
2022/11/24 09:50:57;;;;;;;10.23;3.60;;;;;;;;;;5098007;28;20044;-86
2022/11/24 09:53:23;;;;;;;9.88;3.15;;;;;;;;;;5098305;28;20039;-86
2022/11/24 09:55:51;;;;;;;9.02;3.00;;;;;;;;;;5097292;28;20040;-85
2022/11/24 09:58:36;;;;;;;9.88;3.30;;;;;;;;;;5097465;28;20136;-85
2022/11/24 10:01:04;;;;;;;9.27;3.05;;;;;;;;;;5113882;28;20571;-85
2022/11/24 10:03:39;;;;;;;10.07;3.35;;;;;;;;;;5113991;28;20031;-85
2022/11/24 10:06:17;;;;;;;7.07;2.80;;;;;;;;;;5087098;28;20040;-85
2022/11/24 10:08:53;;;;;;;9.20;3.08;;;;;;;;;;5106987;27;20047;-88
2022/11/24 10:11:30;;;;;;;8.45;2.72;;;;;;;;;;5102998;28;20043;-87
2022/11/24 10:13:59;;;;;;;10.60;3.38;;;;;;;;;;5094576;28;20088;-86
2022/11/24 10:16:37;;;;;;;8.65;2.55;;;;;;;;;;5085323;28;20047;-89
2022/11/24 10:19:27;;;;;;;7.85;2.67;;;;;;;;;;5119641;28;20044;-90
2022/11/24 10:21:56;;;;;;;8.85;2.60;;;;;;;;;;5101913;28;20042;-91
2022/11/24 10:24:29;;;;;;;7.60;2.42;;;;;;;;;;5111665;28;20126;-86
2022/11/24 10:27:02;;;;;;;8.43;2.67;;;;;;;;;;5102559;28;20372;-86
2022/11/24 10:29:28;;;;;;;8.25;2.80;;;;;;;;;;5080910;28;20050;-85
2022/11/24 10:31:57;;;;;;;8.48;3.00;;;;;;;;;;5089750;28;20037;-87
2022/11/24 10:34:29;;;;;;;7.32;2.58;;;;;;;;;;5096967;28;20039;-86
2022/11/24 10:37:07;;;;;;;8.02;2.38;;;;;;;;;;5113551;28;20036;-86
2022/11/24 10:39:36;;;;;;;8.23;2.45;;;;;;;;;;5113507;28;20043;-90
2022/11/24 10:42:03;;;;;;;7.20;2.42;;;;;;;;;;5113124;28;20066;-90
2022/11/24 10:44:29;;;;;;;8.13;2.50;;;;;;;;;;5095892;28;20460;-90
2022/11/24 10:46:55;;;;;;;6.88;2.20;;;;;;;;;;5094701;28;20051;-89
2022/11/24 10:49:24;;;;;;;7.13;2.40;;;;;;;;;;5112791;28;20361;-89
2022/11/24 10:52:09;;;;;;;7.55;2.22;;;;;;;;;;5099670;28;20051;-80
2022/11/24 10:54:35;;;;;;;7.60;2.13;;;;;;;;;;5113810;28;20050;-80
2022/11/24 10:57:02;;;;;;;6.50;2.35;;;;;;;;;;5112340;28;20341;-80
2022/11/24 10:59:32;;;;;;;6.28;2.35;;;;;;;;;;5113978;28;20092;-79
2022/11/24 11:01:58;;;;;;;5.75;2.20;;;10.10;99.90;;;;;;5113718;27;20043;-80
2022/11/24 11:04:26;;;;;;;9.18;2.20;;;;;;;;;;5094751;28;20036;-80
2022/11/24 11:06:52;;;;;;;5.07;2.15;;;;;;;;;;5093335;28;20048;-78
2022/11/24 11:09:21;;;;;;;7.22;2.45;;;16.50;99.90;;;;;;5102689;28;20044;-77
2022/11/24 11:11:48;;;;;;;5.28;2.30;;;19.00;99.90;;;;;;5091590;28;20191;-78
2022/11/24 11:14:34;;;;;;;7.60;2.35;;;19.60;99.90;;;;;;5093097;28;20162;-78
2022/11/24 11:17:00;;;;;;;9.52;2.50;;;21.00;99.90;;;;;;5093059;28;20101;-78
2022/11/24 11:19:41;;;;;;;7.80;2.20;;;21.70;99.40;;;;;;5091688;28;20059;-78
2022/11/24 11:22:10;;;;;;;6.88;2.20;;;22.20;98.60;;;;;;5091689;28;20438;-78
2022/11/24 11:24:38;;;;;;;6.15;2.25;;;22.00;97.50;;;;;;5090945;28;20093;-78
2022/11/24 11:27:14;;;;;;;6.00;2.00;;;21.60;97.60;;;;;;5091623;28;20048;-78
2022/11/24 11:29:40;;;;;;;6.35;1.90;;;22.10;98.20;;;;;;5091859;28;20071;-78
2022/11/24 11:32:23;;;;;;;10.18;1.92;;;22.60;96.40;;;;;;5074263;28;20488;-78
2022/11/24 11:34:51;;;;;;;5.63;2.17;;;23.00;95.20;;;;;;5091328;28;20521;-78
2022/11/24 11:37:18;;;;;;;7.95;2.33;;;22.70;95.00;;;;;;5091390;28;20378;-78
2022/11/24 11:39:55;;;;;;;6.18;2.00;;;22.40;95.10;;;;;;5090112;28;20044;-78
2022/11/24 11:42:40;;;;;;;7.43;2.30;;;21.90;95.90;;;;;;5092475;28;20488;-78
2022/11/24 11:45:14;;;;;;;9.25;3.13;;;21.80;96.40;;;;;;5091344;28;20503;-80
2022/11/24 11:48:01;;;;;;;5.93;2.30;;;21.80;96.70;;;;;;5093235;28;20362;-79
2022/11/24 11:50:30;;;;;;;10.45;3.28;;;21.30;96.90;;;;;;5091048;28;20051;-80
2022/11/24 11:53:21;;;;;;;6.70;2.28;;;20.50;97.70;;;;;;5095694;28;20079;-79
2022/11/24 11:56:13;;;;;;;7.05;2.75;;;19.50;99.10;;;;;;5094483;28;20044;-78
2022/11/24 11:59:06;;;;;;;10.02;3.38;;;18.60;99.90;;;;;;5092796;28;20036;-78
2022/11/24 12:01:48;;;;;;;6.90;2.58;;;18.60;99.90;;;;;;5092226;28;20395;-77
2022/11/24 12:04:41;;;;;;;9.32;2.42;;;18.40;99.90;;;;;;5092549;28;20079;-77
2022/11/24 12:07:36;;;;;;;9.00;2.67;;;18.40;99.90;;;;;;5090946;28;20508;-73
2022/11/24 12:10:22;;;;;;;7.50;2.20;;;18.20;99.90;;;;;;5090907;28;20040;-74
2022/11/24 12:13:12;;;;;;;7.32;2.70;;;18.20;99.90;;;;;;5091505;28;20114;-74
2022/11/24 12:15:52;;;;;;;11.02;2.50;;;18.10;99.90;;;;;;5091912;28;20048;-74
2022/11/24 12:18:50;;;;;;;8.27;2.70;;;18.20;99.90;;;;;;5091311;28;20052;-74
2022/11/24 12:21:34;;;;;;;7.93;2.90;;;18.60;99.90;;;;;;5091699;28;20484;-74
2022/11/24 12:24:38;;;;;;;8.38;2.60;;;19.10;99.90;;;;;;5091318;28;20044;-74
2022/11/24 12:27:20;;;;;;;10.65;2.90;;;19.50;99.90;;;;;;5091018;28;20042;-73
2022/11/24 12:30:02;;;;;;;10.70;2.58;;;19.70;99.90;;;;;;5092258;28;20044;-73
2022/11/24 12:32:37;;;;;;;10.73;2.95;;;19.50;99.90;;;;;;5092416;28;20080;-73
2022/11/24 12:35:27;;;;;;;7.50;2.50;;;19.70;99.90;;;;;;5090720;28;20066;-72
2022/11/24 12:38:14;;;;;;;9.48;2.70;;;20.20;99.90;;;;;;5091282;28;20048;-73
2022/11/24 12:41:01;;;;;;;11.15;2.80;;;20.80;99.40;;;;;;5092154;28;20083;-73
2022/11/24 12:43:46;;;;;;;7.28;2.22;;;21.20;98.80;;;;;;5074150;28;20194;-73
2022/11/24 12:46:24;;;;;;;10.25;2.70;;;21.60;97.90;;;;;;5090040;28;20067;-78
2022/11/24 12:49:05;;;;;;;15.32;2.80;;;21.30;97.90;;;;;;5091704;28;20052;-78
2022/11/24 12:51:34;;;;;;;12.82;2.60;;;21.20;97.70;;;;;;5077289;28;20101;-78
2022/11/24 12:54:04;;;;;;;11.90;3.00;;;21.20;97.30;;;;;;5096003;28;20044;-78
2022/11/24 12:56:58;;;;;;;10.50;2.70;;;20.90;97.40;;;;;;5094324;28;20093;-78
2022/11/24 12:59:38;;;;;;;10.13;2.45;;;20.90;97.50;;;;;;5095817;28;20056;-78
2022/11/24 13:02:15;;;;;;;12.18;2.85;;;20.90;97.70;;;;;;5095841;28;20135;-78
2022/11/24 13:04:55;;;;;;;11.93;2.83;;;21.00;97.70;;;;;;5094543;28;20051;-78
2022/11/24 13:07:46;;;;;;;10.15;2.60;;;20.90;97.40;;;;;;5096010;28;20044;-79
2022/11/24 13:10:24;;;;;;;11.45;2.55;;;20.00;98.30;;;;;;5094415;28;20114;-80
2022/11/24 13:12:57;;;;;;;9.95;2.50;;;18.70;99.70;;;;;;5095753;28;20044;-79